Time;durP1;ratioP1;P1;durP2;ratioP2;P2;SDS_P1;SDS_P2;PMS_P1;PMS_P2;Temp;Humidity;BMP_temperature;BMP_pressure;BME280_temperature;BME280_humidity;BME280_pressure;Samples;Min_cycle;Max_cycle;Signal;HPM_P1;HPM_P2
2021/12/21 00:00:18;;;;;;;0.75;0.75;;;-1.90;99.90;;;;;;5012053;28;20223;-77
2021/12/21 00:02:46;;;;;;;0.40;0.40;;;-1.90;99.90;;;;;;5012328;28;20196;-77
2021/12/21 00:05:17;;;;;;;0.40;0.40;;;-1.90;99.90;;;;;;5011674;28;20224;-77
2021/12/21 00:07:47;;;;;;;0.40;0.40;;;-2.00;99.90;;;;;;5011639;28;20203;-77
2021/12/21 00:10:15;;;;;;;0.40;0.40;;;-2.00;99.90;;;;;;5011342;28;20215;-77
2021/12/21 00:12:50;;;;;;;0.60;0.60;;;-2.00;99.90;;;;;;5012083;28;20198;-78
2021/12/21 00:15:23;;;;;;;0.40;0.40;;;-2.10;99.90;;;;;;5011734;28;20768;-77
2021/12/21 00:17:56;;;;;;;0.40;0.40;;;-2.10;99.90;;;;;;5012210;28;20705;-77
2021/12/21 00:20:44;;;;;;;0.40;0.40;;;-2.10;99.90;;;;;;5011654;28;20268;-77
2021/12/21 00:23:30;;;;;;;12.07;11.60;;;-2.10;99.90;;;;;;5012106;28;20258;-77
2021/12/21 00:25:58;;;;;;;0.52;0.52;;;-2.10;99.90;;;;;;5012196;28;20190;-77
2021/12/21 00:28:25;;;;;;;0.40;0.40;;;-2.10;99.90;;;;;;5011749;28;20193;-77
2021/12/21 00:30:52;;;;;;;0.40;0.40;;;-2.20;99.90;;;;;;5011720;28;20216;-77
2021/12/21 00:33:19;;;;;;;0.40;0.40;;;-2.20;99.90;;;;;;5011645;28;20194;-77
2021/12/21 00:35:46;;;;;;;0.40;0.30;;;-2.20;99.90;;;;;;5012218;28;20219;-76
2021/12/21 00:38:14;;;;;;;0.40;0.40;;;-2.20;99.90;;;;;;5011767;28;20199;-77
2021/12/21 00:40:41;;;;;;;0.40;0.40;;;-2.20;99.90;;;;;;5012080;28;20205;-77
2021/12/21 00:43:08;;;;;;;0.40;0.38;;;-2.10;99.90;;;;;;5011588;28;20202;-77
2021/12/21 00:45:35;;;;;;;0.40;0.40;;;-2.10;99.90;;;;;;5011456;28;20219;-77
2021/12/21 00:48:01;;;;;;;0.40;0.40;;;-2.10;99.90;;;;;;5011706;28;20209;-77
2021/12/21 00:50:29;;;;;;;0.40;0.40;;;-2.10;99.90;;;;;;5011025;28;20213;-77
2021/12/21 00:52:56;;;;;;;1.10;1.08;;;-2.20;99.90;;;;;;5011756;28;20254;-77
2021/12/21 00:55:24;;;;;;;0.40;0.40;;;-2.20;99.90;;;;;;5011713;28;20220;-78
2021/12/21 00:57:52;;;;;;;0.40;0.40;;;-2.20;99.90;;;;;;5014035;28;20569;-77
2021/12/21 01:00:21;;;;;;;0.40;0.40;;;-2.20;99.90;;;;;;5014990;28;20197;-77
2021/12/21 01:02:48;;;;;;;0.50;0.50;;;-2.20;99.90;;;;;;5015621;28;20197;-77
2021/12/21 01:05:22;;;;;;;0.40;0.40;;;-2.20;99.90;;;;;;5016614;28;20581;-77
2021/12/21 01:07:52;;;;;;;0.40;0.40;;;-2.20;99.90;;;;;;5015938;28;20837;-77
2021/12/21 01:10:47;;;;;;;0.40;0.40;;;-2.30;99.90;;;;;;5014340;28;20256;-78
2021/12/21 01:13:28;;;;;;;0.40;0.40;;;-2.20;99.90;;;;;;5015332;28;20207;-77
2021/12/21 01:16:06;;;;;;;0.57;0.57;;;-2.30;99.90;;;;;;5014612;28;20186;-78
2021/12/21 01:18:38;;;;;;;0.68;0.68;;;-2.30;99.90;;;;;;5014899;28;20195;-77
2021/12/21 01:21:11;;;;;;;0.43;0.43;;;-2.30;99.90;;;;;;5014801;28;20180;-78
2021/12/21 01:24:01;;;;;;;0.40;0.40;;;-2.20;99.90;;;;;;5014501;28;20682;-77
2021/12/21 01:26:36;;;;;;;0.40;0.40;;;-2.20;99.90;;;;;;5014506;28;20640;-76
2021/12/21 01:29:13;;;;;;;0.40;0.40;;;-2.20;99.90;;;;;;5014428;28;20279;-77
2021/12/21 01:31:50;;;;;;;0.40;0.40;;;-2.20;99.90;;;;;;5014565;28;20562;-77
2021/12/21 01:34:28;;;;;;;0.40;0.40;;;-2.30;99.90;;;;;;5014756;28;20219;-77
2021/12/21 01:37:01;;;;;;;0.40;0.40;;;-2.30;99.90;;;;;;5014208;28;20666;-77
2021/12/21 01:39:53;;;;;;;0.40;0.40;;;-2.40;99.90;;;;;;5013822;28;20243;-78
2021/12/21 01:42:29;;;;;;;0.40;0.40;;;-2.40;99.90;;;;;;5014610;28;20266;-77
2021/12/21 01:50:27;;;;;;;0.40;0.30;;;-2.40;99.90;;;;;;5013568;28;20732;-78
2021/12/21 01:52:53;;;;;;;0.40;0.40;;;-2.40;99.90;;;;;;5014533;28;20199;-77
2021/12/21 01:55:20;;;;;;;0.40;0.40;;;-2.50;99.90;;;;;;5014455;28;20223;-77
2021/12/21 01:57:47;;;;;;;0.40;0.40;;;-2.50;99.90;;;;;;5018805;28;20196;-77
2021/12/21 02:00:17;;;;;;;0.40;0.40;;;-2.50;99.90;;;;;;5016367;28;20191;-77
2021/12/21 02:02:44;;;;;;;0.40;0.40;;;-2.50;99.90;;;;;;5014029;28;20196;-77
2021/12/21 02:05:10;;;;;;;0.40;0.40;;;-2.50;99.90;;;;;;5013872;28;20251;-77
2021/12/21 02:07:38;;;;;;;0.40;0.40;;;-2.50;99.90;;;;;;5014094;28;20218;-77
2021/12/21 02:10:05;;;;;;;0.40;0.40;;;-2.50;99.90;;;;;;5013011;28;20235;-78
2021/12/21 02:12:33;;;;;;;0.40;0.40;;;-2.50;99.90;;;;;;5013740;28;20207;-78
2021/12/21 02:15:01;;;;;;;0.40;0.40;;;-2.50;99.90;;;;;;5014101;28;20243;-78
2021/12/21 02:18:02;;;;;;;0.60;0.60;;;-2.60;99.90;;;;;;5015875;28;20228;-78
2021/12/21 02:20:42;;;;;;;0.40;0.40;;;-2.60;99.90;;;;;;5013282;28;20294;-78
2021/12/21 02:23:12;;;;;;;0.40;0.40;;;-2.60;99.90;;;;;;5013458;28;20207;-78
2021/12/21 02:31:26;;;;;;;0.73;0.73;;;-2.50;99.90;;;;;;4991126;28;20307;-78
2021/12/21 02:33:53;;;;;;;0.40;0.40;;;-2.50;99.90;;;;;;5003793;28;20216;-78
2021/12/21 02:36:21;;;;;;;0.40;0.40;;;-2.50;99.90;;;;;;5013465;28;20192;-78
2021/12/21 02:38:48;;;;;;;0.40;0.40;;;-2.50;99.90;;;;;;5013514;28;20628;-76
2021/12/21 02:41:15;;;;;;;0.40;0.30;;;-2.60;99.90;;;;;;5012977;28;20189;-78
2021/12/21 02:43:42;;;;;;;0.40;0.40;;;-2.60;99.90;;;;;;5013224;28;20207;-77
2021/12/21 02:46:09;;;;;;;0.50;0.40;;;-2.60;99.90;;;;;;5013216;28;20288;-77
2021/12/21 02:48:35;;;;;;;0.40;0.30;;;-2.60;99.90;;;;;;5013261;28;20197;-77
2021/12/21 02:51:03;;;;;;;0.40;0.40;;;-2.60;99.90;;;;;;5013097;28;20212;-77
2021/12/21 02:53:32;;;;;;;0.40;0.40;;;-2.60;99.90;;;;;;5013385;28;20200;-78
2021/12/21 02:55:58;;;;;;;0.40;0.40;;;-2.60;99.90;;;;;;5012888;28;20673;-77
2021/12/21 02:58:25;;;;;;;0.50;0.50;;;-2.60;99.90;;;;;;5012659;28;20206;-77
2021/12/21 03:00:55;;;;;;;0.40;0.40;;;-2.60;99.90;;;;;;5012432;28;20192;-77
2021/12/21 03:03:22;;;;;;;0.40;0.30;;;-2.60;99.90;;;;;;5012938;28;20202;-77
2021/12/21 03:05:52;;;;;;;0.40;0.40;;;-2.60;99.90;;;;;;5012856;28;20226;-78
2021/12/21 03:08:22;;;;;;;0.40;0.40;;;-2.60;99.90;;;;;;5012843;28;20200;-78
2021/12/21 03:11:06;;;;;;;0.40;0.40;;;-2.70;99.90;;;;;;5011925;28;21010;-77
2021/12/21 03:13:54;;;;;;;0.40;0.40;;;-2.70;99.90;;;;;;5012571;28;20312;-78
2021/12/21 03:16:22;;;;;;;0.40;0.40;;;-2.70;99.90;;;;;;5013877;28;20202;-78
2021/12/21 03:18:49;;;;;;;0.40;0.40;;;-2.80;99.90;;;;;;5012378;28;20207;-77
2021/12/21 03:21:16;;;;;;;0.40;0.40;;;-2.80;99.90;;;;;;5011599;28;20202;-77
2021/12/21 03:23:43;;;;;;;0.40;0.40;;;-2.80;99.90;;;;;;5012470;28;20196;-77
2021/12/21 03:26:11;;;;;;;0.40;0.38;;;-2.90;99.90;;;;;;5012710;28;20204;-77
2021/12/21 03:28:38;;;;;;;0.40;0.30;;;-2.80;99.90;;;;;;5012158;28;20196;-77
2021/12/21 03:31:06;;;;;;;0.40;0.30;;;-2.80;99.90;;;;;;5012244;28;20235;-77
2021/12/21 03:33:33;;;;;;;0.90;0.90;;;-2.80;99.90;;;;;;5011939;28;20226;-78
2021/12/21 03:36:02;;;;;;;2.15;2.05;;;-2.80;99.90;;;;;;5012126;28;20202;-78
2021/12/21 03:38:29;;;;;;;0.40;0.35;;;-2.70;99.90;;;;;;5012075;28;20674;-77
2021/12/21 03:41:02;;;;;;;0.70;0.70;;;-2.70;99.90;;;;;;5012461;28;20224;-78
2021/12/21 03:43:32;;;;;;;0.40;0.40;;;-2.70;99.90;;;;;;5012411;28;20203;-78
2021/12/21 03:46:06;;;;;;;1.83;1.75;;;-2.70;99.90;;;;;;5012870;28;20201;-79
2021/12/21 03:48:33;;;;;;;0.40;0.35;;;-2.60;99.90;;;;;;5012266;28;20258;-77
2021/12/21 03:51:00;;;;;;;0.40;0.40;;;-2.70;99.90;;;;;;5012606;28;20215;-78
2021/12/21 03:53:27;;;;;;;0.40;0.40;;;-2.70;99.90;;;;;;5012456;28;20577;-78
2021/12/21 03:56:04;;;;;;;0.40;0.30;;;-2.70;99.90;;;;;;5012766;28;20200;-78
2021/12/21 03:58:32;;;;;;;0.40;0.30;;;-2.80;99.90;;;;;;5012333;28;20221;-79
2021/12/21 04:00:59;;;;;;;0.40;0.40;;;-2.80;99.90;;;;;;5012103;28;20192;-78
2021/12/21 04:03:26;;;;;;;0.40;0.38;;;-2.90;99.90;;;;;;5012442;28;20200;-77
2021/12/21 04:05:52;;;;;;;0.60;0.60;;;-2.90;99.90;;;;;;5012113;28;20219;-78
2021/12/21 04:08:19;;;;;;;0.40;0.40;;;-2.90;99.90;;;;;;5012500;28;20691;-79
2021/12/21 04:10:46;;;;;;;0.40;0.40;;;-2.90;99.90;;;;;;5011456;28;20217;-78
2021/12/21 04:13:13;;;;;;;0.40;0.40;;;-2.90;99.90;;;;;;5012396;28;20195;-78
2021/12/21 04:15:43;;;;;;;0.40;0.38;;;-3.00;99.90;;;;;;5011649;28;20229;-79
2021/12/21 04:18:10;;;;;;;0.40;0.40;;;-3.00;99.90;;;;;;5012334;28;20246;-78
2021/12/21 04:20:37;;;;;;;0.40;0.40;;;-3.00;99.90;;;;;;5012184;28;20189;-77
2021/12/21 04:23:04;;;;;;;0.40;0.40;;;-3.10;99.90;;;;;;5012139;28;20192;-79
2021/12/21 04:25:31;;;;;;;0.40;0.30;;;-3.10;99.90;;;;;;5012067;28;20219;-78
2021/12/21 04:27:58;;;;;;;0.40;0.40;;;-3.10;99.90;;;;;;5012005;28;20196;-79
2021/12/21 04:30:27;;;;;;;0.50;0.50;;;-3.10;99.90;;;;;;5011664;28;20200;-78
2021/12/21 04:32:56;;;;;;;0.40;0.40;;;-3.00;99.90;;;;;;5014392;28;20204;-78
2021/12/21 04:35:23;;;;;;;1.02;1.02;;;-3.10;99.90;;;;;;5016191;28;20224;-78
2021/12/21 04:37:56;;;;;;;1.27;1.27;;;-3.10;99.90;;;;;;5017684;28;20195;-79
2021/12/21 04:40:27;;;;;;;0.40;0.40;;;-3.10;99.90;;;;;;5022542;28;20188;-79
2021/12/21 04:42:54;;;;;;;0.50;0.50;;;-3.10;99.90;;;;;;5022050;28;20180;-78
2021/12/21 04:45:20;;;;;;;0.40;0.40;;;-3.10;99.90;;;;;;5020216;28;20219;-80
2021/12/21 04:47:47;;;;;;;0.40;0.38;;;-3.00;99.90;;;;;;5017495;28;20227;-80
2021/12/21 04:50:15;;;;;;;0.40;0.40;;;-3.00;99.90;;;;;;5018162;28;20200;-80
2021/12/21 04:52:42;;;;;;;0.40;0.40;;;-3.10;99.90;;;;;;5024889;28;20223;-80
2021/12/21 04:55:09;;;;;;;0.40;0.38;;;-3.10;99.90;;;;;;5026770;28;20242;-80
2021/12/21 04:57:36;;;;;;;0.40;0.38;;;-3.10;99.90;;;;;;5027062;28;20207;-80
2021/12/21 05:00:04;;;;;;;0.40;0.40;;;-3.10;99.90;;;;;;5023977;28;20200;-79
2021/12/21 05:02:31;;;;;;;0.40;0.40;;;-3.20;99.90;;;;;;5027027;28;20193;-79
2021/12/21 05:04:58;;;;;;;0.40;0.40;;;-3.20;99.90;;;;;;5017667;28;20216;-79
2021/12/21 05:07:29;;;;;;;0.40;0.40;;;-3.30;99.90;;;;;;5018070;28;20206;-78
2021/12/21 05:09:58;;;;;;;0.50;0.50;;;-3.40;99.90;;;;;;5018885;28;20298;-79
2021/12/21 05:12:25;;;;;;;0.40;0.40;;;-3.40;99.90;;;;;;5019072;28;20217;-79
2021/12/21 05:14:53;;;;;;;0.40;0.40;;;-3.40;99.90;;;;;;5018284;28;20247;-79
2021/12/21 05:17:19;;;;;;;0.40;0.40;;;-3.50;99.90;;;;;;5017937;28;20196;-80
2021/12/21 05:19:46;;;;;;;0.40;0.40;;;-3.50;99.90;;;;;;5017840;28;20199;-80
2021/12/21 05:22:15;;;;;;;1.27;1.25;;;-3.40;99.90;;;;;;5017825;28;20188;-80
2021/12/21 05:24:43;;;;;;;0.40;0.40;;;-3.40;99.90;;;;;;5018895;28;20226;-79
2021/12/21 05:27:11;;;;;;;0.40;0.40;;;-3.30;99.90;;;;;;5020203;28;20193;-79
2021/12/21 05:29:37;;;;;;;0.40;0.40;;;-3.30;99.90;;;;;;5019850;28;20192;-79
2021/12/21 05:32:05;;;;;;;0.50;0.50;;;-3.40;99.90;;;;;;5021256;28;20223;-80
2021/12/21 05:34:33;;;;;;;0.40;0.40;;;-3.30;99.90;;;;;;5019944;28;20231;-79
2021/12/21 05:37:00;;;;;;;0.40;0.40;;;-3.30;99.90;;;;;;5018440;28;20692;-78
2021/12/21 05:39:38;;;;;;;0.63;0.63;;;-3.30;99.90;;;;;;5017801;28;20203;-79
2021/12/21 05:42:07;;;;;;;0.40;0.30;;;-3.30;99.90;;;;;;5018489;28;20719;-79
2021/12/21 05:44:34;;;;;;;0.40;0.40;;;-3.30;99.90;;;;;;5023116;28;20216;-80
2021/12/21 05:47:01;;;;;;;1.08;0.88;;;-3.30;99.90;;;;;;5025733;28;20279;-80
2021/12/21 05:49:28;;;;;;;0.40;0.40;;;-3.40;99.90;;;;;;5031969;28;20210;-79
2021/12/21 05:51:54;;;;;;;1.08;1.02;;;-3.40;99.90;;;;;;5021180;28;20214;-80
2021/12/21 05:54:21;;;;;;;0.40;0.40;;;-3.40;99.90;;;;;;5021626;28;20216;-79
2021/12/21 05:56:48;;;;;;;2.15;2.05;;;-3.40;99.90;;;;;;5020653;28;20192;-80
2021/12/21 05:59:16;;;;;;;0.40;0.40;;;-3.40;99.90;;;;;;5017018;28;20200;-79
2021/12/21 06:01:43;;;;;;;2.50;1.63;;;-3.40;99.90;;;;;;5016210;28;20204;-79
2021/12/21 06:04:10;;;;;;;0.40;0.30;;;-3.40;99.90;;;;;;5014829;28;20216;-79
2021/12/21 06:06:37;;;;;;;0.98;0.98;;;-3.40;99.90;;;;;;5016495;28;20205;-80
2021/12/21 06:09:07;;;;;;;0.40;0.40;;;-3.40;99.90;;;;;;5015575;28;20199;-80
2021/12/21 06:11:38;;;;;;;0.40;0.40;;;-3.40;99.90;;;;;;5017471;28;20211;-80
2021/12/21 06:14:19;;;;;;;0.40;0.40;;;-3.40;99.90;;;;;;5028906;28;20641;-79
2021/12/21 06:27:52;;;;;;;0.40;0.40;;;-3.50;99.90;;;;;;5015705;28;20213;-80
2021/12/21 06:30:19;;;;;;;0.40;0.40;;;-3.50;99.90;;;;;;5015268;28;20625;-80
2021/12/21 06:32:48;;;;;;;0.40;0.40;;;-3.40;99.90;;;;;;5016314;28;20601;-80
2021/12/21 06:35:16;;;;;;;0.40;0.30;;;-3.40;99.90;;;;;;5016515;28;20334;-80
2021/12/21 06:37:43;;;;;;;0.40;0.40;;;-3.40;99.90;;;;;;5018253;28;20196;-80
2021/12/21 06:40:11;;;;;;;1.35;1.35;;;-3.50;99.90;;;;;;5015354;28;20198;-79
2021/12/21 06:42:39;;;;;;;0.40;0.40;;;-3.50;99.90;;;;;;5016416;28;20574;-80
2021/12/21 06:45:14;;;;;;;0.40;0.40;;;-3.60;99.90;;;;;;5016332;28;20227;-79
2021/12/21 06:53:12;;;;;;;0.40;0.30;;;-3.70;99.90;;;;;;5016618;28;20203;-80
2021/12/21 06:55:38;;;;;;;0.40;0.40;;;-3.60;99.90;;;;;;5015782;28;20230;-81
2021/12/21 06:58:05;;;;;;;0.40;0.30;;;-3.50;99.90;;;;;;5017001;28;20192;-81
2021/12/21 07:00:32;;;;;;;0.47;0.47;;;-3.50;99.90;;;;;;5012726;28;20196;-80
2021/12/21 07:02:59;;;;;;;0.40;0.40;;;-3.50;99.90;;;;;;5025372;28;20200;-79
2021/12/21 07:05:29;;;;;;;3.67;1.80;;;-3.40;99.90;;;;;;5033957;28;20720;-80
2021/12/21 07:07:56;;;;;;;0.40;0.40;;;-3.40;99.90;;;;;;5036484;28;20199;-80
2021/12/21 07:10:26;;;;;;;0.50;0.40;;;-3.40;99.90;;;;;;5034092;28;20195;-80
2021/12/21 07:18:29;;;;;;;0.40;0.30;;;-3.50;99.90;;;;;;5023854;28;20270;-80
2021/12/21 07:21:01;;;;;;;0.40;0.40;;;-3.60;99.90;;;;;;5017121;28;20232;-80
2021/12/21 07:23:30;;;;;;;0.40;0.40;;;-3.60;99.90;;;;;;5025918;28;20195;-79
2021/12/21 07:25:57;;;;;;;0.40;0.40;;;-3.50;99.90;;;;;;5014100;28;20215;-80
2021/12/21 07:28:26;;;;;;;2.63;2.05;;;-3.50;99.90;;;;;;5014686;28;20200;-80
2021/12/21 07:30:53;;;;;;;0.40;0.30;;;-3.50;99.90;;;;;;5030033;28;20218;-80
2021/12/21 07:33:20;;;;;;;0.40;0.40;;;-3.50;99.90;;;;;;5013888;28;20211;-80
2021/12/21 07:35:47;;;;;;;0.40;0.30;;;-3.40;99.90;;;;;;5018169;28;20554;-79
2021/12/21 07:38:17;;;;;;;0.40;0.40;;;-3.50;99.90;;;;;;5014409;28;20279;-80
2021/12/21 07:40:44;;;;;;;0.40;0.40;;;-3.50;99.90;;;;;;5013994;28;20287;-79
2021/12/21 07:43:11;;;;;;;0.40;0.40;;;-3.50;99.90;;;;;;5013110;28;20189;-78
2021/12/21 07:45:38;;;;;;;0.40;0.40;;;-3.50;99.90;;;;;;5011942;28;20218;-78
2021/12/21 07:48:06;;;;;;;0.40;0.40;;;-3.50;99.90;;;;;;5012571;28;20241;-78
2021/12/21 07:50:33;;;;;;;0.40;0.40;;;-3.50;99.90;;;;;;5011354;28;20204;-79
2021/12/21 07:53:01;;;;;;;2.63;2.47;;;-3.40;99.90;;;;;;5025123;28;20215;-79
2021/12/21 07:55:29;;;;;;;0.40;0.40;;;-3.50;99.90;;;;;;5013682;28;20218;-79
2021/12/21 07:57:56;;;;;;;0.40;0.40;;;-3.50;99.90;;;;;;5017898;28;20577;-79
2021/12/21 08:00:23;;;;;;;0.40;0.40;;;-3.40;99.90;;;;;;5013043;28;20200;-80
2021/12/21 08:02:50;;;;;;;0.40;0.40;;;-3.40;99.90;;;;;;5013249;28;20645;-77
2021/12/21 08:05:18;;;;;;;1.38;1.27;;;-3.40;99.90;;;;;;5013448;28;20239;-78
2021/12/21 08:07:50;;;;;;;0.40;0.30;;;-3.30;99.90;;;;;;5031089;28;20204;-78
2021/12/21 08:10:25;;;;;;;0.40;0.40;;;-3.30;99.90;;;;;;5032697;28;20195;-78
2021/12/21 08:12:54;;;;;;;0.40;0.40;;;-3.30;99.90;;;;;;5032080;28;20246;-79
2021/12/21 08:15:21;;;;;;;0.50;0.50;;;-3.00;99.90;;;;;;5033120;28;20336;-78
2021/12/21 08:17:48;;;;;;;0.40;0.30;;;-2.80;99.90;;;;;;5032569;28;20201;-79
2021/12/21 08:20:15;;;;;;;0.60;0.60;;;-2.50;99.90;;;;;;5033263;28;20203;-79
2021/12/21 08:22:41;;;;;;;0.40;0.40;;;-2.30;99.90;;;;;;5034078;28;20195;-78
2021/12/21 08:25:09;;;;;;;0.40;0.30;;;-2.10;99.90;;;;;;5033043;28;20215;-79
2021/12/21 08:27:36;;;;;;;0.40;0.30;;;-2.00;99.90;;;;;;5032780;28;20194;-78
2021/12/21 08:30:05;;;;;;;0.40;0.30;;;-1.90;99.90;;;;;;5032736;28;20199;-79
2021/12/21 08:32:31;;;;;;;0.57;0.57;;;-1.80;99.90;;;;;;5033968;28;20218;-78
2021/12/21 08:34:58;;;;;;;0.40;0.30;;;-1.80;99.90;;;;;;5032449;28;20215;-78
2021/12/21 08:37:25;;;;;;;0.40;0.30;;;-1.80;99.90;;;;;;5032331;28;20208;-79
2021/12/21 08:39:52;;;;;;;1.30;1.30;;;-1.90;99.90;;;;;;5032233;28;20202;-78
2021/12/21 08:42:18;;;;;;;0.40;0.30;;;-1.90;99.90;;;;;;5032323;28;20195;-78
2021/12/21 08:44:47;;;;;;;0.40;0.40;;;-1.80;99.90;;;;;;5032440;28;20224;-79
2021/12/21 08:47:16;;;;;;;1.38;1.35;;;-1.80;99.90;;;;;;5032597;28;20191;-79
2021/12/21 08:49:43;;;;;;;0.93;0.93;;;-1.70;99.90;;;;;;5032063;28;20569;-78
2021/12/21 08:52:09;;;;;;;0.40;0.40;;;-1.60;99.90;;;;;;5032330;28;20220;-79
2021/12/21 08:54:36;;;;;;;0.40;0.40;;;-1.10;99.90;;;;;;5033645;28;20220;-79
2021/12/21 08:57:03;;;;;;;0.50;0.50;;;-0.80;99.90;;;;;;5033018;28;20199;-79
2021/12/21 08:59:30;;;;;;;0.40;0.40;;;-0.30;99.90;;;;;;5031895;28;20202;-80
2021/12/21 09:01:57;;;;;;;0.40;0.40;;;0.00;99.90;;;;;;5033145;28;20217;-79
2021/12/21 09:04:26;;;;;;;0.40;0.38;;;0.40;99.90;;;;;;5032656;28;20229;-79
2021/12/21 09:06:54;;;;;;;0.40;0.40;;;0.80;99.90;;;;;;5032275;28;20285;-79
2021/12/21 09:09:21;;;;;;;0.70;0.70;;;1.20;99.90;;;;;;5034651;28;20206;-79
2021/12/21 09:11:49;;;;;;;3.70;1.70;;;1.50;99.90;;;;;;5033530;28;20194;-79
2021/12/21 09:14:17;;;;;;;0.43;0.40;;;1.70;99.90;;;;;;5034939;28;20307;-79
2021/12/21 09:16:44;;;;;;;3.90;3.65;;;2.10;99.90;;;;;;5092642;22;20231;-78
2021/12/21 09:19:11;;;;;;;0.47;0.40;;;2.40;99.90;;;;;;5055262;28;20194;-79
2021/12/21 09:21:39;;;;;;;0.47;0.40;;;2.90;99.90;;;;;;5057077;28;20261;-81
2021/12/21 09:24:06;;;;;;;0.50;0.40;;;3.20;99.90;;;;;;5054948;28;20198;-81
2021/12/21 09:26:33;;;;;;;1.13;1.13;;;3.50;99.90;;;;;;5037112;28;20211;-81
2021/12/21 09:29:00;;;;;;;0.50;0.50;;;3.60;99.90;;;;;;5036345;28;20202;-81
2021/12/21 09:31:27;;;;;;;3.28;3.03;;;4.00;99.90;;;;;;5037065;28;20210;-81
2021/12/21 09:33:54;;;;;;;2.25;2.15;;;4.30;99.90;;;;;;5036853;28;20222;-81
2021/12/21 09:36:21;;;;;;;0.47;0.40;;;4.80;99.90;;;;;;5036492;28;20219;-82
2021/12/21 09:38:49;;;;;;;2.63;2.22;;;5.70;99.90;;;;;;5037422;28;20204;-79
2021/12/21 09:41:18;;;;;;;0.50;0.40;;;6.50;99.90;;;;;;5037359;28;20193;-81
2021/12/21 09:43:45;;;;;;;0.70;0.70;;;7.00;99.90;;;;;;5037096;28;20200;-82
2021/12/21 09:46:12;;;;;;;3.17;2.97;;;6.90;99.90;;;;;;5036900;28;20251;-82
2021/12/21 09:48:39;;;;;;;1.52;1.52;;;6.60;99.90;;;;;;5036959;28;20680;-82
2021/12/21 09:51:07;;;;;;;0.50;0.40;;;5.90;99.90;;;;;;5035904;28;20191;-80
2021/12/21 09:53:34;;;;;;;0.50;0.40;;;5.20;99.90;;;;;;5036746;28;20222;-81
2021/12/21 09:56:03;;;;;;;0.50;0.40;;;4.80;99.90;;;;;;5037024;28;20616;-81
2021/12/21 09:58:30;;;;;;;0.50;0.40;;;4.80;99.90;;;;;;5036314;28;20192;-81
2021/12/21 10:00:57;;;;;;;0.68;0.68;;;5.10;99.90;;;;;;5035628;28;20550;-81
2021/12/21 10:03:24;;;;;;;0.50;0.40;;;5.70;99.90;;;;;;5036592;28;20192;-81
2021/12/21 10:06:01;;;;;;;0.50;0.50;;;6.50;99.90;;;;;;5037538;28;20228;-81
2021/12/21 10:08:31;;;;;;;0.60;0.40;;;7.20;99.90;;;;;;5036688;28;20175;-81
2021/12/21 10:10:58;;;;;;;0.50;0.40;;;7.00;99.90;;;;;;5036162;28;20198;-82
2021/12/21 10:13:27;;;;;;;0.50;0.40;;;7.00;99.90;;;;;;5035953;28;20216;-82
2021/12/21 10:15:57;;;;;;;0.50;0.50;;;6.80;99.90;;;;;;5035904;28;20305;-82
2021/12/21 10:18:26;;;;;;;0.60;0.50;;;6.70;99.90;;;;;;5036447;28;20210;-82
2021/12/21 10:20:54;;;;;;;0.55;0.55;;;6.70;99.90;;;;;;5036741;28;20200;-81
2021/12/21 10:23:23;;;;;;;0.50;0.40;;;6.50;99.90;;;;;;5036326;28;20204;-80
2021/12/21 10:25:51;;;;;;;0.63;0.63;;;6.40;99.90;;;;;;5036959;28;20643;-82
2021/12/21 10:28:32;;;;;;;0.50;0.40;;;6.40;99.90;;;;;;5035747;28;20482;-81
2021/12/21 10:31:01;;;;;;;1.40;1.35;;;6.60;99.90;;;;;;5035698;28;20180;-82
2021/12/21 10:33:29;;;;;;;0.52;0.50;;;7.30;99.90;;;;;;5036400;28;20562;-81
2021/12/21 10:35:58;;;;;;;0.50;0.40;;;7.50;99.90;;;;;;5036212;28;20216;-81
2021/12/21 10:38:30;;;;;;;0.50;0.50;;;7.30;99.90;;;;;;5035941;28;20221;-80
2021/12/21 10:41:06;;;;;;;0.50;0.40;;;7.50;99.90;;;;;;5035527;28;20539;-82
2021/12/21 10:43:34;;;;;;;0.50;0.50;;;7.60;99.90;;;;;;5035487;28;20224;-81
2021/12/21 10:46:02;;;;;;;0.50;0.40;;;7.50;99.90;;;;;;5035514;28;20221;-79
2021/12/21 10:48:30;;;;;;;1.05;0.95;;;7.60;99.90;;;;;;5035889;28;20204;-82
2021/12/21 10:50:57;;;;;;;1.10;1.10;;;7.40;99.90;;;;;;5035336;28;20196;-81
2021/12/21 10:53:25;;;;;;;0.50;0.40;;;7.50;99.90;;;;;;5035209;28;20218;-81
2021/12/21 10:56:01;;;;;;;1.33;1.23;;;7.80;99.90;;;;;;5035335;28;20217;-82
2021/12/21 10:58:29;;;;;;;0.50;0.40;;;8.00;99.90;;;;;;5035319;28;20194;-81
2021/12/21 11:01:00;;;;;;;1.10;1.00;;;7.90;99.90;;;;;;5034693;28;20212;-82
2021/12/21 11:03:33;;;;;;;0.50;0.50;;;7.40;99.90;;;;;;5035243;28;20666;-81
2021/12/21 11:06:12;;;;;;;0.50;0.40;;;6.80;99.90;;;;;;5035434;28;20239;-79
2021/12/21 11:08:40;;;;;;;0.50;0.40;;;6.60;99.90;;;;;;5035288;28;20193;-81
2021/12/21 11:11:10;;;;;;;0.50;0.40;;;6.50;99.90;;;;;;5035361;28;20192;-79
2021/12/21 11:13:38;;;;;;;2.35;2.25;;;6.30;99.90;;;;;;5034697;28;20208;-82
2021/12/21 11:16:07;;;;;;;0.50;0.47;;;6.20;99.90;;;;;;5035415;28;20232;-81
2021/12/21 11:18:37;;;;;;;0.50;0.50;;;6.00;99.90;;;;;;5035307;28;20227;-79
2021/12/21 11:21:06;;;;;;;1.90;1.80;;;5.90;99.90;;;;;;5035687;28;20691;-81
2021/12/21 11:23:34;;;;;;;0.50;0.40;;;5.70;99.90;;;;;;5034895;28;20187;-81
2021/12/21 11:26:03;;;;;;;0.50;0.40;;;5.70;99.90;;;;;;5034818;28;20227;-81
2021/12/21 11:28:35;;;;;;;0.50;0.40;;;5.60;99.90;;;;;;5035685;28;20212;-81
2021/12/21 11:31:04;;;;;;;1.13;1.13;;;5.70;99.90;;;;;;5035596;28;20200;-82
2021/12/21 11:33:36;;;;;;;0.50;0.40;;;6.00;99.90;;;;;;5035006;28;20216;-80
2021/12/21 11:38:48;;;;;;;0.50;0.40;;;6.60;99.90;;;;;;5034393;28;20565;-81
2021/12/21 11:41:16;;;;;;;0.50;0.40;;;7.20;99.90;;;;;;5034515;28;20217;-81
2021/12/21 11:43:52;;;;;;;9.45;8.70;;;7.50;99.90;;;;;;5034545;28;20200;-81
2021/12/21 11:46:26;;;;;;;0.50;0.40;;;7.10;99.90;;;;;;5034904;28;20730;-82
2021/12/21 11:49:00;;;;;;;0.50;0.40;;;7.10;99.90;;;;;;5034798;28;20192;-81
2021/12/21 11:51:30;;;;;;;0.50;0.40;;;7.50;99.90;;;;;;5035205;28;20189;-81
2021/12/21 11:53:57;;;;;;;0.50;0.40;;;7.80;99.90;;;;;;5034709;28;20222;-82
2021/12/21 11:56:27;;;;;;;0.50;0.40;;;8.40;99.90;;;;;;5035035;28;20214;-81
2021/12/21 11:58:56;;;;;;;0.50;0.40;;;9.20;99.90;;;;;;5035020;28;20207;-81
2021/12/21 12:01:25;;;;;;;0.50;0.40;;;9.70;99.90;;;;;;5035011;28;20206;-82
2021/12/21 12:04:00;;;;;;;0.82;0.82;;;10.00;99.90;;;;;;5034550;28;20191;-81
2021/12/21 12:06:28;;;;;;;0.50;0.40;;;10.10;99.90;;;;;;5035616;28;20211;-82
2021/12/21 12:09:01;;;;;;;0.50;0.40;;;10.40;99.90;;;;;;5037275;28;20297;-79
2021/12/21 12:11:35;;;;;;;0.50;0.40;;;10.00;99.90;;;;;;5041836;28;20185;-80
2021/12/21 12:14:07;;;;;;;0.50;0.40;;;10.00;99.90;;;;;;5040956;28;20238;-80
2021/12/21 12:16:43;;;;;;;0.50;0.40;;;9.80;99.90;;;;;;5037263;28;20245;-78
2021/12/21 12:19:13;;;;;;;0.50;0.40;;;9.80;99.90;;;;;;5038532;28;20194;-81
2021/12/21 12:21:53;;;;;;;0.50;0.50;;;9.70;99.90;;;;;;5041063;28;20209;-80
2021/12/21 12:24:20;;;;;;;0.50;0.40;;;9.30;99.90;;;;;;5039524;28;20183;-79
2021/12/21 12:26:57;;;;;;;0.50;0.40;;;8.80;99.90;;;;;;5036142;28;20226;-81
2021/12/21 12:29:25;;;;;;;0.50;0.40;;;8.40;99.90;;;;;;5034507;28;20186;-81
2021/12/21 12:31:59;;;;;;;0.50;0.40;;;8.30;99.90;;;;;;5046203;28;20198;-80
2021/12/21 12:34:31;;;;;;;0.60;0.40;;;8.00;99.90;;;;;;5047214;28;20201;-82
2021/12/21 12:37:00;;;;;;;0.60;0.40;;;7.50;99.90;;;;;;5046133;28;20305;-80
2021/12/21 12:39:32;;;;;;;0.50;0.50;;;7.10;99.90;;;;;;5041803;28;20194;-79
2021/12/21 12:42:07;;;;;;;0.50;0.40;;;6.90;99.90;;;;;;5037559;28;20202;-79
2021/12/21 12:44:35;;;;;;;0.50;0.50;;;6.70;99.90;;;;;;5037594;28;20178;-79
2021/12/21 12:47:05;;;;;;;0.50;0.40;;;6.60;99.90;;;;;;5037479;28;20228;-78
2021/12/21 12:49:35;;;;;;;0.50;0.40;;;6.80;99.90;;;;;;5037429;28;20660;-80
2021/12/21 12:52:08;;;;;;;0.50;0.40;;;7.20;99.90;;;;;;5038394;28;20207;-80
2021/12/21 12:54:51;;;;;;;0.50;0.40;;;7.60;99.90;;;;;;5042058;28;20211;-80
2021/12/21 12:57:30;;;;;;;6.63;1.55;;;7.60;99.90;;;;;;5042753;28;20300;-79
2021/12/21 13:00:06;;;;;;;1.85;1.52;;;7.40;99.90;;;;;;5042043;28;20209;-79
2021/12/21 13:02:33;;;;;;;0.50;0.40;;;7.00;99.90;;;;;;5038795;28;20290;-81
2021/12/21 13:05:05;;;;;;;0.50;0.40;;;6.90;99.90;;;;;;5039011;28;20189;-80
2021/12/21 13:07:32;;;;;;;0.50;0.40;;;6.70;99.90;;;;;;5039101;28;20190;-81
2021/12/21 13:10:08;;;;;;;0.50;0.40;;;6.60;99.90;;;;;;5037846;28;20217;-80
2021/12/21 13:12:35;;;;;;;0.50;0.40;;;6.70;99.90;;;;;;5038370;28;20601;-81
2021/12/21 13:15:02;;;;;;;0.50;0.40;;;6.80;99.90;;;;;;5037943;28;20677;-81
2021/12/21 13:17:29;;;;;;;0.50;0.40;;;6.70;99.90;;;;;;5038292;28;20210;-81
2021/12/21 13:19:56;;;;;;;0.60;0.60;;;6.70;99.90;;;;;;5037859;28;20205;-81
2021/12/21 13:22:26;;;;;;;1.45;1.35;;;6.70;99.90;;;;;;5037883;28;20200;-82
2021/12/21 13:24:53;;;;;;;0.50;0.40;;;6.60;99.90;;;;;;5037795;28;20201;-81
2021/12/21 13:27:23;;;;;;;0.50;0.50;;;6.60;99.90;;;;;;5038328;28;20228;-81
2021/12/21 13:29:50;;;;;;;0.50;0.40;;;6.80;99.90;;;;;;5038309;28;20180;-81
2021/12/21 13:32:19;;;;;;;0.50;0.40;;;6.80;99.90;;;;;;5038277;28;20197;-81
2021/12/21 13:34:52;;;;;;;0.50;0.40;;;6.90;99.90;;;;;;5037453;28;20225;-81
2021/12/21 13:37:20;;;;;;;0.50;0.40;;;7.10;99.90;;;;;;5038563;28;20218;-81